createdAt,value
2018-07-05T07:38:15.603Z,3.30
2018-07-05T07:43:13.040Z,3.35
2018-07-05T07:48:11.793Z,3.20
2018-07-05T07:53:09.699Z,2.90
2018-07-05T07:58:10.525Z,3.40
2018-07-05T08:03:09.270Z,5.35
2018-07-05T08:08:08.118Z,3.17
2018-07-05T08:13:07.818Z,3.87
2018-07-05T08:18:00.592Z,3.37
2018-07-05T08:22:54.389Z,3.65
2018-07-05T08:27:50.713Z,3.70
2018-07-05T08:32:49.037Z,3.85
2018-07-05T08:37:47.410Z,3.77
2018-07-05T08:42:45.012Z,3.20
2018-07-05T08:47:42.367Z,3.70
2018-07-05T08:52:41.072Z,3.42
2018-07-05T08:57:39.516Z,3.33
2018-07-05T09:02:38.088Z,3.00
2018-07-05T09:07:36.284Z,4.00
2018-07-05T09:12:34.885Z,3.27
2018-07-05T09:17:32.184Z,3.22
2018-07-05T09:22:30.521Z,3.47
2018-07-05T09:27:28.201Z,3.20
2018-07-05T09:32:25.732Z,2.70
2018-07-05T09:37:23.239Z,2.58
2018-07-05T09:42:21.637Z,2.37
2018-07-05T09:47:20.987Z,2.12
2018-07-05T09:52:18.596Z,2.20
2018-07-05T09:57:17.928Z,2.13
2018-07-05T10:02:15.232Z,1.90
2018-07-05T10:07:12.392Z,2.20
2018-07-05T10:12:09.886Z,2.20
2018-07-05T10:17:07.431Z,2.00
2018-07-05T10:22:05.284Z,1.75
2018-07-05T10:27:02.714Z,1.72
2018-07-05T10:32:16.074Z,1.80
2018-07-05T10:37:19.961Z,2.10
2018-07-05T10:42:33.257Z,2.22
2018-07-05T10:47:48.497Z,2.33
2018-07-05T12:45:44.192Z,3.37
2018-07-05T12:50:58.448Z,3.65
2018-07-05T12:56:11.898Z,3.35
2018-07-05T13:01:25.192Z,3.33
2018-07-05T13:06:39.165Z,3.55
2018-07-05T13:11:53.223Z,3.70
2018-07-05T13:17:07.638Z,3.20
2018-07-05T13:22:19.777Z,2.87
2018-07-05T13:27:33.871Z,3.10
2018-07-05T13:32:46.534Z,3.55
2018-07-05T13:38:01.515Z,4.08
2018-07-05T13:43:14.981Z,3.92
2018-07-05T13:48:29.050Z,3.33
2018-07-05T13:53:43.349Z,3.40
2018-07-05T13:58:50.995Z,2.87
2018-07-05T14:04:04.276Z,3.25
2018-07-05T14:09:18.697Z,2.85
2018-07-05T14:14:32.009Z,3.40
2018-07-05T14:19:50.758Z,2.85
2018-07-05T14:25:05.168Z,3.20
2018-07-05T14:30:18.465Z,3.15
2018-07-05T14:35:32.533Z,3.10
2018-07-05T14:40:46.702Z,3.90
2018-07-05T14:45:59.792Z,3.83
2018-07-05T14:51:13.059Z,3.30
2018-07-05T14:56:26.214Z,3.65
2018-07-05T15:01:39.487Z,3.45
2018-07-05T15:06:52.943Z,4.08
2018-07-05T15:12:06.549Z,4.42
2018-07-05T15:17:24.827Z,4.80
2018-07-05T15:22:38.571Z,4.58
2018-07-05T15:27:53.002Z,4.50
2018-07-05T15:33:07.210Z,4.70
2018-07-05T15:38:20.533Z,3.70
2018-07-05T15:43:33.919Z,3.20
2018-07-05T15:48:48.396Z,2.12
2018-07-05T15:54:01.685Z,2.15
2018-07-05T15:59:16.035Z,1.92
2018-07-05T16:04:28.961Z,2.40
2018-07-05T16:09:43.300Z,2.40
2018-07-05T16:14:57.359Z,2.65
2018-07-05T16:20:11.453Z,2.37
2018-07-05T16:25:25.764Z,2.20
2018-07-05T16:30:40.096Z,2.58
2018-07-05T16:35:58.112Z,2.50
2018-07-05T16:41:12.310Z,2.30
2018-07-05T16:46:26.448Z,2.10
2018-07-05T16:51:39.745Z,2.05
2018-07-05T16:56:54.428Z,1.85
2018-07-05T17:02:07.664Z,2.10
2018-07-05T17:07:21.767Z,2.50
2018-07-05T17:12:36.067Z,2.08
2018-07-05T17:17:50.094Z,2.10
2018-07-05T17:23:04.216Z,2.00
2018-07-05T17:28:18.536Z,2.40
2018-07-05T17:33:32.827Z,2.08
2018-07-05T17:38:46.940Z,2.17
2018-07-05T17:44:01.210Z,2.15
2018-07-05T17:49:15.288Z,2.30
2018-07-05T17:54:29.582Z,2.05
2018-07-05T17:59:45.753Z,2.00
2018-07-05T18:04:59.120Z,2.00
2018-07-05T18:10:13.196Z,2.27
2018-07-05T18:15:27.713Z,2.40
2018-07-05T18:20:43.964Z,1.98
2018-07-05T18:25:57.201Z,2.52
2018-07-05T18:31:10.695Z,2.52
2018-07-05T18:36:25.085Z,2.17
2018-07-05T18:41:33.428Z,2.58
2018-07-05T18:46:47.807Z,2.20
2018-07-05T18:52:01.315Z,2.30
2018-07-05T18:57:18.328Z,2.20
2018-07-05T19:02:32.413Z,2.63
2018-07-05T19:07:46.518Z,1.93
2018-07-05T19:13:00.114Z,2.00
2018-07-05T19:18:14.436Z,1.80
2018-07-05T19:23:29.424Z,2.40
2018-07-05T19:28:43.555Z,2.33
2018-07-05T19:33:57.628Z,3.03
2018-07-05T19:39:11.917Z,1.80
2018-07-05T19:44:26.972Z,1.30
2018-07-05T19:49:41.120Z,1.00
2018-07-05T19:54:57.598Z,0.77
2018-07-05T20:00:11.974Z,1.40
2018-07-05T20:05:26.291Z,1.27
2018-07-05T20:10:40.325Z,1.20
2018-07-05T20:15:53.553Z,1.17
2018-07-05T20:21:07.747Z,1.43
2018-07-05T20:26:21.943Z,1.50
2018-07-05T20:31:35.064Z,2.20
2018-07-05T20:36:49.119Z,2.00
2018-07-05T20:42:03.298Z,1.80
2018-07-05T20:47:20.461Z,2.00
2018-07-05T20:52:33.561Z,2.23
2018-07-05T20:57:47.779Z,1.57
2018-07-05T21:03:01.843Z,1.67
2018-07-05T21:08:16.054Z,1.30
2018-07-05T21:13:30.443Z,1.30
2018-07-05T21:18:44.604Z,1.30
2018-07-05T21:23:58.625Z,1.40
2018-07-05T21:29:11.694Z,1.40
2018-07-05T21:34:24.954Z,1.30
2018-07-05T21:39:38.342Z,1.30
2018-07-05T21:44:51.539Z,1.30
2018-07-05T21:50:05.692Z,1.73
2018-07-05T21:55:20.007Z,1.50
2018-07-05T22:00:34.108Z,1.30
2018-07-05T22:05:48.317Z,1.37
2018-07-05T22:11:02.878Z,1.43
2018-07-05T22:16:16.269Z,1.13
2018-07-05T22:21:29.662Z,1.77
2018-07-05T22:26:41.960Z,1.50
2018-07-05T22:31:57.339Z,1.43
2018-07-05T22:37:10.372Z,1.20
2018-07-05T22:42:24.637Z,1.47
2018-07-05T22:47:37.800Z,1.70
2018-07-05T22:52:51.968Z,1.43
2018-07-05T22:58:06.128Z,1.13
2018-07-05T23:03:19.345Z,1.63
2018-07-05T23:08:32.633Z,1.80
2018-07-05T23:13:46.759Z,1.50
2018-07-05T23:18:59.991Z,1.60
2018-07-05T23:24:12.153Z,1.83
2018-07-05T23:29:25.390Z,1.70
2018-07-05T23:34:39.416Z,1.73
2018-07-05T23:39:53.487Z,1.93
2018-07-05T23:45:07.664Z,1.73
2018-07-05T23:50:21.542Z,1.83
2018-07-05T23:55:37.169Z,1.83
